sensor_id;sensor_type;location;lat;lon;timestamp;P1;durP1;ratioP1;P2;durP2;ratioP2
69569;SDS011;56781;42.292;23.146;2023-02-28T00:01:18;10.77;;;5.43;;
69569;SDS011;56781;42.292;23.146;2023-02-28T00:03:45;10.23;;;4.90;;
69569;SDS011;56781;42.292;23.146;2023-02-28T00:06:12;7.57;;;3.60;;
69569;SDS011;56781;42.292;23.146;2023-02-28T00:08:39;7.63;;;3.95;;
69569;SDS011;56781;42.292;23.146;2023-02-28T00:11:07;10.40;;;4.53;;
69569;SDS011;56781;42.292;23.146;2023-02-28T00:13:37;8.60;;;3.80;;
69569;SDS011;56781;42.292;23.146;2023-02-28T00:16:10;8.55;;;3.80;;
69569;SDS011;56781;42.292;23.146;2023-02-28T00:18:39;10.05;;;3.65;;
69569;SDS011;56781;42.292;23.146;2023-02-28T00:21:07;9.18;;;3.20;;
69569;SDS011;56781;42.292;23.146;2023-02-28T00:23:35;8.27;;;3.13;;
69569;SDS011;56781;42.292;23.146;2023-02-28T00:26:03;9.80;;;4.00;;
69569;SDS011;56781;42.292;23.146;2023-02-28T00:28:31;10.73;;;4.20;;
69569;SDS011;56781;42.292;23.146;2023-02-28T00:30:58;11.45;;;4.70;;
69569;SDS011;56781;42.292;23.146;2023-02-28T00:33:27;10.20;;;4.63;;
69569;SDS011;56781;42.292;23.146;2023-02-28T00:36:02;16.23;;;7.30;;
69569;SDS011;56781;42.292;23.146;2023-02-28T00:38:30;16.77;;;7.03;;
69569;SDS011;56781;42.292;23.146;2023-02-28T00:40:57;15.48;;;7.07;;
69569;SDS011;56781;42.292;23.146;2023-02-28T00:43:24;24.38;;;12.32;;
69569;SDS011;56781;42.292;23.146;2023-02-28T00:45:52;26.90;;;13.30;;
69569;SDS011;56781;42.292;23.146;2023-02-28T00:48:19;17.30;;;9.27;;
69569;SDS011;56781;42.292;23.146;2023-02-28T00:50:48;25.03;;;11.53;;
69569;SDS011;56781;42.292;23.146;2023-02-28T00:53:16;10.98;;;5.43;;
69569;SDS011;56781;42.292;23.146;2023-02-28T00:55:43;14.05;;;5.82;;
69569;SDS011;56781;42.292;23.146;2023-02-28T00:58:10;11.82;;;5.15;;
69569;SDS011;56781;42.292;23.146;2023-02-28T01:00:37;11.15;;;5.45;;
69569;SDS011;56781;42.292;23.146;2023-02-28T01:03:04;18.53;;;8.20;;
69569;SDS011;56781;42.292;23.146;2023-02-28T01:05:31;15.38;;;7.55;;
69569;SDS011;56781;42.292;23.146;2023-02-28T01:07:58;17.88;;;8.75;;
69569;SDS011;56781;42.292;23.146;2023-02-28T01:10:25;14.85;;;6.75;;
69569;SDS011;56781;42.292;23.146;2023-02-28T01:12:57;14.35;;;4.70;;
69569;SDS011;56781;42.292;23.146;2023-02-28T01:15:24;8.13;;;3.70;;
69569;SDS011;56781;42.292;23.146;2023-02-28T01:17:52;10.70;;;4.40;;
69569;SDS011;56781;42.292;23.146;2023-02-28T01:20:19;8.55;;;4.25;;
69569;SDS011;56781;42.292;23.146;2023-02-28T01:22:46;9.77;;;5.18;;
69569;SDS011;56781;42.292;23.146;2023-02-28T01:25:13;13.50;;;5.43;;
69569;SDS011;56781;42.292;23.146;2023-02-28T01:27:40;11.93;;;4.60;;
69569;SDS011;56781;42.292;23.146;2023-02-28T01:30:08;12.95;;;4.63;;
69569;SDS011;56781;42.292;23.146;2023-02-28T01:32:36;16.70;;;4.68;;
69569;SDS011;56781;42.292;23.146;2023-02-28T01:35:04;10.93;;;4.10;;
69569;SDS011;56781;42.292;23.146;2023-02-28T01:37:31;12.35;;;4.30;;
69569;SDS011;56781;42.292;23.146;2023-02-28T01:39:58;12.70;;;4.10;;
69569;SDS011;56781;42.292;23.146;2023-02-28T01:42:25;11.10;;;4.22;;
69569;SDS011;56781;42.292;23.146;2023-02-28T01:47:45;14.82;;;7.80;;
69569;SDS011;56781;42.292;23.146;2023-02-28T01:50:16;17.10;;;8.25;;
69569;SDS011;56781;42.292;23.146;2023-02-28T01:52:47;20.13;;;9.00;;
69569;SDS011;56781;42.292;23.146;2023-02-28T01:55:16;15.13;;;6.35;;
69569;SDS011;56781;42.292;23.146;2023-02-28T01:57:48;11.45;;;5.25;;
69569;SDS011;56781;42.292;23.146;2023-02-28T02:00:20;9.80;;;4.22;;
69569;SDS011;56781;42.292;23.146;2023-02-28T02:02:51;13.13;;;5.10;;
69569;SDS011;56781;42.292;23.146;2023-02-28T02:05:23;16.90;;;8.50;;
69569;SDS011;56781;42.292;23.146;2023-02-28T02:07:54;16.42;;;6.18;;
69569;SDS011;56781;42.292;23.146;2023-02-28T02:10:38;12.70;;;4.85;;
69569;SDS011;56781;42.292;23.146;2023-02-28T02:18:59;19.83;;;8.20;;
69569;SDS011;56781;42.292;23.146;2023-02-28T02:27:55;12.32;;;5.03;;
69569;SDS011;56781;42.292;23.146;2023-02-28T02:30:56;11.32;;;4.45;;
69569;SDS011;56781;42.292;23.146;2023-02-28T02:41:39;11.15;;;3.80;;
69569;SDS011;56781;42.292;23.146;2023-02-28T02:44:15;14.52;;;4.95;;
69569;SDS011;56781;42.292;23.146;2023-02-28T02:46:55;16.67;;;5.20;;
69569;SDS011;56781;42.292;23.146;2023-02-28T02:49:30;15.27;;;5.45;;
69569;SDS011;56781;42.292;23.146;2023-02-28T02:52:01;16.17;;;5.97;;
69569;SDS011;56781;42.292;23.146;2023-02-28T02:54:36;17.83;;;5.60;;
69569;SDS011;56781;42.292;23.146;2023-02-28T02:57:07;17.08;;;5.43;;
69569;SDS011;56781;42.292;23.146;2023-02-28T02:59:39;20.23;;;7.10;;
69569;SDS011;56781;42.292;23.146;2023-02-28T03:02:09;12.23;;;4.72;;
69569;SDS011;56781;42.292;23.146;2023-02-28T03:04:43;12.07;;;4.28;;
69569;SDS011;56781;42.292;23.146;2023-02-28T03:07:15;10.35;;;4.00;;
69569;SDS011;56781;42.292;23.146;2023-02-28T03:09:49;11.57;;;3.38;;
69569;SDS011;56781;42.292;23.146;2023-02-28T03:12:20;8.47;;;3.37;;
69569;SDS011;56781;42.292;23.146;2023-02-28T03:14:59;53.28;;;5.03;;
69569;SDS011;56781;42.292;23.146;2023-02-28T03:18:00;50.80;;;4.82;;
69569;SDS011;56781;42.292;23.146;2023-02-28T03:20:46;35.20;;;5.03;;
69569;SDS011;56781;42.292;23.146;2023-02-28T03:23:50;23.23;;;3.78;;
69569;SDS011;56781;42.292;23.146;2023-02-28T03:26:19;20.47;;;3.33;;
69569;SDS011;56781;42.292;23.146;2023-02-28T03:29:35;55.70;;;4.50;;
69569;SDS011;56781;42.292;23.146;2023-02-28T03:34:42;32.35;;;3.90;;
69569;SDS011;56781;42.292;23.146;2023-02-28T03:37:18;26.00;;;4.38;;
69569;SDS011;56781;42.292;23.146;2023-02-28T03:39:51;25.20;;;5.10;;
69569;SDS011;56781;42.292;23.146;2023-02-28T03:42:25;60.58;;;7.40;;
69569;SDS011;56781;42.292;23.146;2023-02-28T03:44:57;27.08;;;5.80;;
69569;SDS011;56781;42.292;23.146;2023-02-28T03:47:29;55.15;;;6.80;;
69569;SDS011;56781;42.292;23.146;2023-02-28T03:50:29;40.65;;;6.50;;
69569;SDS011;56781;42.292;23.146;2023-02-28T03:53:10;36.70;;;5.83;;
69569;SDS011;56781;42.292;23.146;2023-02-28T03:55:45;42.15;;;5.97;;
69569;SDS011;56781;42.292;23.146;2023-02-28T03:58:21;87.15;;;7.15;;
69569;SDS011;56781;42.292;23.146;2023-02-28T04:01:00;44.28;;;5.43;;
69569;SDS011;56781;42.292;23.146;2023-02-28T04:03:37;55.25;;;5.13;;
69569;SDS011;56781;42.292;23.146;2023-02-28T04:06:06;69.17;;;7.80;;
69569;SDS011;56781;42.292;23.146;2023-02-28T04:08:39;74.97;;;7.07;;
69569;SDS011;56781;42.292;23.146;2023-02-28T04:11:14;44.25;;;5.35;;
69569;SDS011;56781;42.292;23.146;2023-02-28T04:13:48;74.22;;;5.88;;
69569;SDS011;56781;42.292;23.146;2023-02-28T04:16:16;42.05;;;6.20;;
69569;SDS011;56781;42.292;23.146;2023-02-28T04:18:58;83.87;;;6.57;;
69569;SDS011;56781;42.292;23.146;2023-02-28T04:21:29;107.80;;;7.10;;
69569;SDS011;56781;42.292;23.146;2023-02-28T04:23:57;46.53;;;6.05;;
69569;SDS011;56781;42.292;23.146;2023-02-28T04:26:31;53.08;;;7.47;;
69569;SDS011;56781;42.292;23.146;2023-02-28T04:29:00;75.03;;;7.50;;
69569;SDS011;56781;42.292;23.146;2023-02-28T04:31:28;91.07;;;7.47;;
69569;SDS011;56781;42.292;23.146;2023-02-28T04:33:55;82.28;;;8.13;;
69569;SDS011;56781;42.292;23.146;2023-02-28T04:36:23;47.88;;;5.90;;
69569;SDS011;56781;42.292;23.146;2023-02-28T04:38:50;67.90;;;6.05;;
69569;SDS011;56781;42.292;23.146;2023-02-28T04:41:18;103.13;;;8.02;;
69569;SDS011;56781;42.292;23.146;2023-02-28T04:43:46;53.13;;;5.80;;
69569;SDS011;56781;42.292;23.146;2023-02-28T04:46:13;103.38;;;7.75;;
69569;SDS011;56781;42.292;23.146;2023-02-28T04:48:40;73.28;;;7.63;;
69569;SDS011;56781;42.292;23.146;2023-02-28T04:51:09;87.68;;;7.97;;
69569;SDS011;56781;42.292;23.146;2023-02-28T04:53:38;46.22;;;5.65;;
69569;SDS011;56781;42.292;23.146;2023-02-28T04:56:07;75.60;;;5.80;;
69569;SDS011;56781;42.292;23.146;2023-02-28T04:58:36;48.13;;;4.80;;
69569;SDS011;56781;42.292;23.146;2023-02-28T05:01:05;34.17;;;6.22;;
69569;SDS011;56781;42.292;23.146;2023-02-28T05:03:41;51.15;;;6.38;;
69569;SDS011;56781;42.292;23.146;2023-02-28T05:06:10;104.75;;;8.05;;
69569;SDS011;56781;42.292;23.146;2023-02-28T05:08:38;66.80;;;8.03;;
69569;SDS011;56781;42.292;23.146;2023-02-28T05:11:06;47.70;;;6.97;;
69569;SDS011;56781;42.292;23.146;2023-02-28T05:13:40;40.50;;;6.10;;
69569;SDS011;56781;42.292;23.146;2023-02-28T05:16:07;46.85;;;6.13;;
69569;SDS011;56781;42.292;23.146;2023-02-28T05:18:34;46.20;;;6.00;;
69569;SDS011;56781;42.292;23.146;2023-02-28T05:21:01;27.57;;;4.90;;
69569;SDS011;56781;42.292;23.146;2023-02-28T05:23:29;27.45;;;4.78;;
69569;SDS011;56781;42.292;23.146;2023-02-28T05:25:56;27.05;;;5.00;;
69569;SDS011;56781;42.292;23.146;2023-02-28T05:28:24;36.20;;;5.10;;
69569;SDS011;56781;42.292;23.146;2023-02-28T05:30:51;51.28;;;5.85;;
69569;SDS011;56781;42.292;23.146;2023-02-28T05:33:18;53.77;;;6.33;;
69569;SDS011;56781;42.292;23.146;2023-02-28T05:35:45;27.58;;;5.55;;
69569;SDS011;56781;42.292;23.146;2023-02-28T05:38:12;33.78;;;5.07;;
69569;SDS011;56781;42.292;23.146;2023-02-28T05:40:39;15.98;;;5.20;;
69569;SDS011;56781;42.292;23.146;2023-02-28T05:43:08;19.00;;;5.57;;
69569;SDS011;56781;42.292;23.146;2023-02-28T05:45:38;20.90;;;5.00;;
69569;SDS011;56781;42.292;23.146;2023-02-28T05:48:05;16.38;;;4.38;;
69569;SDS011;56781;42.292;23.146;2023-02-28T05:50:32;16.48;;;4.50;;
69569;SDS011;56781;42.292;23.146;2023-02-28T05:52:59;14.80;;;4.82;;
69569;SDS011;56781;42.292;23.146;2023-02-28T05:55:27;13.82;;;4.50;;
69569;SDS011;56781;42.292;23.146;2023-02-28T05:57:54;17.17;;;4.90;;
69569;SDS011;56781;42.292;23.146;2023-02-28T06:00:21;15.57;;;4.90;;
69569;SDS011;56781;42.292;23.146;2023-02-28T06:02:48;103.45;;;14.95;;
69569;SDS011;56781;42.292;23.146;2023-02-28T06:05:16;240.40;;;32.72;;
69569;SDS011;56781;42.292;23.146;2023-02-28T06:07:44;300.27;;;38.80;;
69569;SDS011;56781;42.292;23.146;2023-02-28T06:10:12;363.27;;;49.00;;
69569;SDS011;56781;42.292;23.146;2023-02-28T06:12:40;139.95;;;22.98;;
69569;SDS011;56781;42.292;23.146;2023-02-28T06:15:14;171.57;;;28.92;;
69569;SDS011;56781;42.292;23.146;2023-02-28T06:17:43;79.10;;;14.15;;
69569;SDS011;56781;42.292;23.146;2023-02-28T06:20:11;63.17;;;13.98;;
69569;SDS011;56781;42.292;23.146;2023-02-28T06:22:41;37.87;;;12.10;;
69569;SDS011;56781;42.292;23.146;2023-02-28T06:25:09;23.98;;;8.27;;
69569;SDS011;56781;42.292;23.146;2023-02-28T06:27:37;19.75;;;6.82;;
69569;SDS011;56781;42.292;23.146;2023-02-28T06:30:04;14.15;;;4.95;;
69569;SDS011;56781;42.292;23.146;2023-02-28T06:32:32;13.15;;;4.80;;
69569;SDS011;56781;42.292;23.146;2023-02-28T06:34:59;14.47;;;4.73;;
69569;SDS011;56781;42.292;23.146;2023-02-28T06:37:26;10.65;;;3.92;;
69569;SDS011;56781;42.292;23.146;2023-02-28T06:39:53;8.68;;;3.70;;
69569;SDS011;56781;42.292;23.146;2023-02-28T06:42:22;11.70;;;3.90;;
69569;SDS011;56781;42.292;23.146;2023-02-28T06:44:55;9.10;;;3.80;;
69569;SDS011;56781;42.292;23.146;2023-02-28T06:47:23;34.60;;;13.33;;
69569;SDS011;56781;42.292;23.146;2023-02-28T06:49:50;29.23;;;14.38;;
69569;SDS011;56781;42.292;23.146;2023-02-28T06:52:17;19.38;;;6.43;;
69569;SDS011;56781;42.292;23.146;2023-02-28T06:54:44;16.15;;;5.68;;
69569;SDS011;56781;42.292;23.146;2023-02-28T06:57:11;19.73;;;7.72;;
69569;SDS011;56781;42.292;23.146;2023-02-28T06:59:38;13.57;;;6.00;;
69569;SDS011;56781;42.292;23.146;2023-02-28T07:02:05;21.80;;;11.07;;
69569;SDS011;56781;42.292;23.146;2023-02-28T07:04:34;22.05;;;10.13;;
69569;SDS011;56781;42.292;23.146;2023-02-28T07:07:01;19.50;;;7.75;;
69569;SDS011;56781;42.292;23.146;2023-02-28T07:09:28;18.83;;;8.57;;
69569;SDS011;56781;42.292;23.146;2023-02-28T07:11:56;14.73;;;5.73;;
69569;SDS011;56781;42.292;23.146;2023-02-28T07:14:23;16.55;;;5.45;;
69569;SDS011;56781;42.292;23.146;2023-02-28T07:16:50;10.85;;;5.10;;
69569;SDS011;56781;42.292;23.146;2023-02-28T07:19:17;16.63;;;4.75;;
69569;SDS011;56781;42.292;23.146;2023-02-28T07:21:44;18.45;;;7.43;;
69569;SDS011;56781;42.292;23.146;2023-02-28T07:24:11;19.13;;;5.93;;
69569;SDS011;56781;42.292;23.146;2023-02-28T07:26:42;13.00;;;5.40;;
69569;SDS011;56781;42.292;23.146;2023-02-28T07:29:09;12.25;;;4.75;;
69569;SDS011;56781;42.292;23.146;2023-02-28T07:31:36;12.63;;;4.28;;
69569;SDS011;56781;42.292;23.146;2023-02-28T07:34:03;14.15;;;4.45;;
69569;SDS011;56781;42.292;23.146;2023-02-28T07:36:30;15.60;;;5.57;;
69569;SDS011;56781;42.292;23.146;2023-02-28T07:38:58;16.38;;;6.63;;
69569;SDS011;56781;42.292;23.146;2023-02-28T07:41:25;13.07;;;5.20;;
69569;SDS011;56781;42.292;23.146;2023-02-28T07:43:54;20.40;;;7.65;;
69569;SDS011;56781;42.292;23.146;2023-02-28T07:46:26;18.40;;;8.25;;
69569;SDS011;56781;42.292;23.146;2023-02-28T07:48:56;17.53;;;6.73;;
69569;SDS011;56781;42.292;23.146;2023-02-28T07:51:25;20.23;;;6.70;;
69569;SDS011;56781;42.292;23.146;2023-02-28T07:53:53;15.80;;;7.20;;
69569;SDS011;56781;42.292;23.146;2023-02-28T07:56:20;19.15;;;7.70;;
69569;SDS011;56781;42.292;23.146;2023-02-28T07:58:48;20.40;;;7.50;;
69569;SDS011;56781;42.292;23.146;2023-02-28T08:01:15;14.70;;;6.57;;
69569;SDS011;56781;42.292;23.146;2023-02-28T08:03:42;18.00;;;6.88;;
69569;SDS011;56781;42.292;23.146;2023-02-28T08:06:15;15.93;;;6.93;;
69569;SDS011;56781;42.292;23.146;2023-02-28T08:08:44;16.40;;;7.03;;
69569;SDS011;56781;42.292;23.146;2023-02-28T08:11:11;19.02;;;8.05;;
69569;SDS011;56781;42.292;23.146;2023-02-28T08:13:38;20.90;;;8.40;;
69569;SDS011;56781;42.292;23.146;2023-02-28T08:16:05;17.08;;;8.23;;
69569;SDS011;56781;42.292;23.146;2023-02-28T08:18:32;17.45;;;7.35;;
69569;SDS011;56781;42.292;23.146;2023-02-28T08:21:05;21.40;;;8.63;;
69569;SDS011;56781;42.292;23.146;2023-02-28T08:23:36;19.88;;;8.57;;
69569;SDS011;56781;42.292;23.146;2023-02-28T08:26:03;19.87;;;8.90;;
69569;SDS011;56781;42.292;23.146;2023-02-28T08:28:31;16.52;;;7.60;;
69569;SDS011;56781;42.292;23.146;2023-02-28T08:30:58;18.40;;;7.85;;
69569;SDS011;56781;42.292;23.146;2023-02-28T08:33:26;17.58;;;7.40;;
69569;SDS011;56781;42.292;23.146;2023-02-28T08:35:54;13.55;;;5.32;;
69569;SDS011;56781;42.292;23.146;2023-02-28T08:38:22;19.40;;;8.23;;
69569;SDS011;56781;42.292;23.146;2023-02-28T08:40:56;14.30;;;5.85;;
69569;SDS011;56781;42.292;23.146;2023-02-28T08:43:25;10.50;;;4.72;;
69569;SDS011;56781;42.292;23.146;2023-02-28T08:45:52;12.27;;;4.43;;
69569;SDS011;56781;42.292;23.146;2023-02-28T08:48:20;10.50;;;4.47;;
69569;SDS011;56781;42.292;23.146;2023-02-28T08:51:00;9.80;;;4.40;;
69569;SDS011;56781;42.292;23.146;2023-02-28T08:53:33;12.93;;;4.70;;
69569;SDS011;56781;42.292;23.146;2023-02-28T08:56:05;13.10;;;4.88;;
69569;SDS011;56781;42.292;23.146;2023-02-28T08:58:34;14.88;;;5.47;;
69569;SDS011;56781;42.292;23.146;2023-02-28T09:01:22;14.30;;;5.55;;
69569;SDS011;56781;42.292;23.146;2023-02-28T09:03:51;15.10;;;5.50;;
69569;SDS011;56781;42.292;23.146;2023-02-28T09:06:19;15.43;;;6.20;;
69569;SDS011;56781;42.292;23.146;2023-02-28T09:08:47;19.50;;;7.32;;
69569;SDS011;56781;42.292;23.146;2023-02-28T09:11:15;21.85;;;7.93;;
69569;SDS011;56781;42.292;23.146;2023-02-28T09:13:42;16.50;;;6.40;;
69569;SDS011;56781;42.292;23.146;2023-02-28T09:16:10;17.30;;;6.40;;
69569;SDS011;56781;42.292;23.146;2023-02-28T09:18:39;16.05;;;6.45;;
69569;SDS011;56781;42.292;23.146;2023-02-28T09:21:08;15.40;;;5.95;;
69569;SDS011;56781;42.292;23.146;2023-02-28T09:23:37;16.85;;;6.07;;
69569;SDS011;56781;42.292;23.146;2023-02-28T09:26:04;16.42;;;6.47;;
69569;SDS011;56781;42.292;23.146;2023-02-28T09:28:32;14.43;;;6.07;;
69569;SDS011;56781;42.292;23.146;2023-02-28T09:30:59;17.90;;;5.78;;
69569;SDS011;56781;42.292;23.146;2023-02-28T09:33:27;13.43;;;5.82;;
69569;SDS011;56781;42.292;23.146;2023-02-28T09:35:58;14.18;;;5.75;;
69569;SDS011;56781;42.292;23.146;2023-02-28T09:38:27;22.40;;;6.38;;
69569;SDS011;56781;42.292;23.146;2023-02-28T09:41:01;14.13;;;6.27;;
69569;SDS011;56781;42.292;23.146;2023-02-28T09:43:34;15.18;;;5.82;;
69569;SDS011;56781;42.292;23.146;2023-02-28T09:48:52;14.40;;;5.03;;
69569;SDS011;56781;42.292;23.146;2023-02-28T09:54:15;15.23;;;6.07;;
69569;SDS011;56781;42.292;23.146;2023-02-28T09:59:39;22.17;;;7.82;;
69569;SDS011;56781;42.292;23.146;2023-02-28T10:05:03;14.30;;;6.68;;
69569;SDS011;56781;42.292;23.146;2023-02-28T10:07:49;14.50;;;6.33;;
69569;SDS011;56781;42.292;23.146;2023-02-28T10:13:14;16.30;;;5.63;;
69569;SDS011;56781;42.292;23.146;2023-02-28T10:15:43;16.33;;;6.57;;
69569;SDS011;56781;42.292;23.146;2023-02-28T10:18:14;17.13;;;6.70;;
69569;SDS011;56781;42.292;23.146;2023-02-28T10:20:47;17.93;;;6.83;;
69569;SDS011;56781;42.292;23.146;2023-02-28T10:26:00;18.35;;;7.03;;
69569;SDS011;56781;42.292;23.146;2023-02-28T10:28:36;19.38;;;6.40;;
69569;SDS011;56781;42.292;23.146;2023-02-28T10:31:03;19.92;;;7.53;;
69569;SDS011;56781;42.292;23.146;2023-02-28T10:33:34;16.07;;;6.07;;
69569;SDS011;56781;42.292;23.146;2023-02-28T10:36:02;16.08;;;6.72;;
69569;SDS011;56781;42.292;23.146;2023-02-28T10:38:34;17.15;;;7.53;;
69569;SDS011;56781;42.292;23.146;2023-02-28T10:41:07;18.33;;;6.85;;
69569;SDS011;56781;42.292;23.146;2023-02-28T10:43:37;24.67;;;6.07;;
69569;SDS011;56781;42.292;23.146;2023-02-28T10:48:43;20.05;;;6.55;;
69569;SDS011;56781;42.292;23.146;2023-02-28T10:51:15;19.45;;;6.38;;
69569;SDS011;56781;42.292;23.146;2023-02-28T10:56:26;22.08;;;7.00;;
69569;SDS011;56781;42.292;23.146;2023-02-28T10:58:58;17.73;;;6.40;;
69569;SDS011;56781;42.292;23.146;2023-02-28T11:01:44;18.77;;;6.82;;
69569;SDS011;56781;42.292;23.146;2023-02-28T11:07:05;13.45;;;5.97;;
69569;SDS011;56781;42.292;23.146;2023-02-28T11:09:50;22.17;;;7.35;;
69569;SDS011;56781;42.292;23.146;2023-02-28T11:12:35;19.03;;;7.87;;
69569;SDS011;56781;42.292;23.146;2023-02-28T11:15:21;20.17;;;7.25;;
69569;SDS011;56781;42.292;23.146;2023-02-28T11:18:01;15.52;;;6.18;;
69569;SDS011;56781;42.292;23.146;2023-02-28T11:20:33;16.45;;;6.22;;
69569;SDS011;56781;42.292;23.146;2023-02-28T11:23:01;39.20;;;10.27;;
69569;SDS011;56781;42.292;23.146;2023-02-28T11:25:32;33.03;;;9.90;;
69569;SDS011;56781;42.292;23.146;2023-02-28T11:28:01;25.90;;;9.18;;
69569;SDS011;56781;42.292;23.146;2023-02-28T11:30:38;22.55;;;7.18;;
69569;SDS011;56781;42.292;23.146;2023-02-28T11:33:20;21.83;;;8.43;;
69569;SDS011;56781;42.292;23.146;2023-02-28T11:36:01;30.20;;;10.27;;
69569;SDS011;56781;42.292;23.146;2023-02-28T11:38:36;17.30;;;7.13;;
69569;SDS011;56781;42.292;23.146;2023-02-28T11:49:23;19.20;;;6.53;;
69569;SDS011;56781;42.292;23.146;2023-02-28T11:55:04;19.35;;;5.50;;
69569;SDS011;56781;42.292;23.146;2023-02-28T12:03:26;14.82;;;6.78;;
69569;SDS011;56781;42.292;23.146;2023-02-28T12:06:08;20.60;;;7.40;;
69569;SDS011;56781;42.292;23.146;2023-02-28T12:12:02;14.50;;;5.75;;
69569;SDS011;56781;42.292;23.146;2023-02-28T12:17:43;19.00;;;6.97;;
69569;SDS011;56781;42.292;23.146;2023-02-28T12:28:33;18.75;;;6.53;;
69569;SDS011;56781;42.292;23.146;2023-02-28T12:31:06;16.08;;;6.47;;
69569;SDS011;56781;42.292;23.146;2023-02-28T12:33:56;13.60;;;5.30;;
69569;SDS011;56781;42.292;23.146;2023-02-28T12:36:30;20.73;;;5.20;;
69569;SDS011;56781;42.292;23.146;2023-02-28T12:44:35;14.45;;;5.57;;
69569;SDS011;56781;42.292;23.146;2023-02-28T12:47:11;16.27;;;6.53;;
69569;SDS011;56781;42.292;23.146;2023-02-28T12:49:43;14.32;;;6.13;;
69569;SDS011;56781;42.292;23.146;2023-02-28T12:52:18;16.85;;;6.90;;
69569;SDS011;56781;42.292;23.146;2023-02-28T12:54:53;16.42;;;7.07;;
69569;SDS011;56781;42.292;23.146;2023-02-28T13:00:35;18.40;;;6.43;;
69569;SDS011;56781;42.292;23.146;2023-02-28T13:09:08;16.35;;;7.30;;
69569;SDS011;56781;42.292;23.146;2023-02-28T13:11:40;16.77;;;7.22;;
69569;SDS011;56781;42.292;23.146;2023-02-28T13:14:23;19.47;;;6.90;;
69569;SDS011;56781;42.292;23.146;2023-02-28T13:19:37;18.23;;;7.60;;
69569;SDS011;56781;42.292;23.146;2023-02-28T13:22:21;18.65;;;6.88;;
69569;SDS011;56781;42.292;23.146;2023-02-28T13:25:50;14.95;;;6.07;;
69569;SDS011;56781;42.292;23.146;2023-02-28T13:27:57;16.63;;;6.80;;
69569;SDS011;56781;42.292;23.146;2023-02-28T13:35:46;21.52;;;9.82;;
69569;SDS011;56781;42.292;23.146;2023-02-28T13:38:15;28.75;;;11.50;;
69569;SDS011;56781;42.292;23.146;2023-02-28T13:40:48;24.87;;;9.00;;
69569;SDS011;56781;42.292;23.146;2023-02-28T13:43:16;21.80;;;8.30;;
69569;SDS011;56781;42.292;23.146;2023-02-28T13:46:12;19.63;;;7.88;;
69569;SDS011;56781;42.292;23.146;2023-02-28T13:48:39;21.10;;;8.85;;
69569;SDS011;56781;42.292;23.146;2023-02-28T14:05:29;20.15;;;9.30;;
69569;SDS011;56781;42.292;23.146;2023-02-28T14:08:04;17.00;;;7.83;;
69569;SDS011;56781;42.292;23.146;2023-02-28T14:16:15;22.95;;;5.63;;
69569;SDS011;56781;42.292;23.146;2023-02-28T14:18:51;19.05;;;6.88;;
69569;SDS011;56781;42.292;23.146;2023-02-28T14:21:33;16.70;;;7.47;;
69569;SDS011;56781;42.292;23.146;2023-02-28T14:24:07;14.95;;;5.80;;
69569;SDS011;56781;42.292;23.146;2023-02-28T14:26:51;13.23;;;6.40;;
69569;SDS011;56781;42.292;23.146;2023-02-28T14:37:38;19.17;;;8.20;;
69569;SDS011;56781;42.292;23.146;2023-02-28T14:40:13;15.02;;;6.75;;
69569;SDS011;56781;42.292;23.146;2023-02-28T14:42:57;15.65;;;7.47;;
69569;SDS011;56781;42.292;23.146;2023-02-28T14:45:27;14.57;;;7.05;;
69569;SDS011;56781;42.292;23.146;2023-02-28T14:47:57;14.87;;;7.17;;
69569;SDS011;56781;42.292;23.146;2023-02-28T14:50:34;15.63;;;6.22;;
69569;SDS011;56781;42.292;23.146;2023-02-28T14:53:03;14.88;;;6.40;;
69569;SDS011;56781;42.292;23.146;2023-02-28T14:55:36;13.50;;;5.70;;
69569;SDS011;56781;42.292;23.146;2023-02-28T14:58:04;12.68;;;5.20;;
69569;SDS011;56781;42.292;23.146;2023-02-28T15:00:50;15.93;;;5.70;;
69569;SDS011;56781;42.292;23.146;2023-02-28T15:03:25;13.40;;;6.63;;
69569;SDS011;56781;42.292;23.146;2023-02-28T15:05:58;23.42;;;7.07;;
69569;SDS011;56781;42.292;23.146;2023-02-28T15:08:30;11.88;;;5.43;;
69569;SDS011;56781;42.292;23.146;2023-02-28T15:11:24;17.42;;;6.88;;
69569;SDS011;56781;42.292;23.146;2023-02-28T15:13:50;15.70;;;5.83;;
69569;SDS011;56781;42.292;23.146;2023-02-28T15:16:41;15.00;;;6.05;;
69569;SDS011;56781;42.292;23.146;2023-02-28T15:19:26;15.63;;;5.40;;
69569;SDS011;56781;42.292;23.146;2023-02-28T15:22:01;13.32;;;5.30;;
69569;SDS011;56781;42.292;23.146;2023-02-28T15:24:36;15.70;;;5.95;;
69569;SDS011;56781;42.292;23.146;2023-02-28T15:27:11;12.47;;;4.90;;
69569;SDS011;56781;42.292;23.146;2023-02-28T15:29:46;18.88;;;5.90;;
69569;SDS011;56781;42.292;23.146;2023-02-28T15:32:39;16.52;;;5.40;;
69569;SDS011;56781;42.292;23.146;2023-02-28T15:38:22;15.57;;;5.72;;
69569;SDS011;56781;42.292;23.146;2023-02-28T15:40:52;18.87;;;8.43;;
69569;SDS011;56781;42.292;23.146;2023-02-28T15:43:30;15.90;;;6.35;;
69569;SDS011;56781;42.292;23.146;2023-02-28T15:46:02;20.20;;;8.95;;
69569;SDS011;56781;42.292;23.146;2023-02-28T15:48:50;14.38;;;6.22;;
69569;SDS011;56781;42.292;23.146;2023-02-28T15:51:21;17.52;;;6.80;;
69569;SDS011;56781;42.292;23.146;2023-02-28T15:53:59;14.67;;;6.27;;
69569;SDS011;56781;42.292;23.146;2023-02-28T15:56:29;17.13;;;6.20;;
69569;SDS011;56781;42.292;23.146;2023-02-28T15:59:03;17.02;;;6.25;;
69569;SDS011;56781;42.292;23.146;2023-02-28T16:01:37;10.23;;;4.70;;
69569;SDS011;56781;42.292;23.146;2023-02-28T16:04:06;14.60;;;6.57;;
69569;SDS011;56781;42.292;23.146;2023-02-28T16:09:12;12.77;;;6.40;;
69569;SDS011;56781;42.292;23.146;2023-02-28T16:11:45;16.05;;;4.97;;
69569;SDS011;56781;42.292;23.146;2023-02-28T16:14:18;13.95;;;5.78;;
69569;SDS011;56781;42.292;23.146;2023-02-28T16:16:51;12.10;;;5.07;;
69569;SDS011;56781;42.292;23.146;2023-02-28T16:19:20;17.93;;;6.33;;
69569;SDS011;56781;42.292;23.146;2023-02-28T16:21:48;14.00;;;5.75;;
69569;SDS011;56781;42.292;23.146;2023-02-28T16:24:16;21.55;;;8.75;;
69569;SDS011;56781;42.292;23.146;2023-02-28T16:26:45;14.25;;;5.70;;
69569;SDS011;56781;42.292;23.146;2023-02-28T16:29:16;19.90;;;8.02;;
69569;SDS011;56781;42.292;23.146;2023-02-28T16:31:50;16.47;;;6.80;;
69569;SDS011;56781;42.292;23.146;2023-02-28T16:34:18;24.55;;;9.80;;
69569;SDS011;56781;42.292;23.146;2023-02-28T16:36:46;23.02;;;8.85;;
69569;SDS011;56781;42.292;23.146;2023-02-28T16:39:15;20.00;;;8.60;;
69569;SDS011;56781;42.292;23.146;2023-02-28T16:41:43;16.45;;;6.63;;
69569;SDS011;56781;42.292;23.146;2023-02-28T16:44:13;16.97;;;7.10;;
69569;SDS011;56781;42.292;23.146;2023-02-28T16:46:54;11.98;;;5.20;;
69569;SDS011;56781;42.292;23.146;2023-02-28T16:49:22;17.65;;;7.50;;
69569;SDS011;56781;42.292;23.146;2023-02-28T16:51:49;10.80;;;5.60;;
69569;SDS011;56781;42.292;23.146;2023-02-28T16:54:16;12.13;;;5.38;;
69569;SDS011;56781;42.292;23.146;2023-02-28T16:56:44;14.63;;;6.27;;
69569;SDS011;56781;42.292;23.146;2023-02-28T16:59:12;15.10;;;6.13;;
69569;SDS011;56781;42.292;23.146;2023-02-28T17:01:41;18.25;;;6.55;;
69569;SDS011;56781;42.292;23.146;2023-02-28T17:04:09;12.35;;;5.57;;
69569;SDS011;56781;42.292;23.146;2023-02-28T17:06:37;16.08;;;6.97;;